الصفحة الرئيسية
METAR-TAF:

METAR-TAF

مطار :

سكوتسبلوف, نبراسكا, الولايات المتحدة

دائرة عرض: 41-52-01N, خط طول: 103-35-09W, ارتفاع: 1208 متر

مراقبة الطقس الحالي

تاريخ ووقت الإصدار 16 دقيقة قبل الساعة 15:53UTC
ريح 4 عقدة من الجنوب/الجنوب الغربي
درجة الحرارة 7°درجة مئوية
الرطوبة 66%
ضغط 1026 hPa
الرؤية: 16.1 كم
سماء صافية

METAR: KBFF 251553Z AUTO 21004KT 10SM CLR 07/01 A3029 RMK AO2 SLP271 T00670006

زمن: 10:09 (16:09 UTC)

توقعات

تاريخ ووقت الإصدار 4ساعات و 49 دقيقة قبل الساعة 11:20UTC
التوقعات صالحة من25 الساعة 12 UTC إلى 26 الساعة 12 UTC
ريح 5 عقدةمن اتجاهات متغيرة
الرؤية: 10 كم
سماء صافية
من 25 الساعة 1800 UTC
ريح 8 عقدة من الغرب/الجنوب الغربي
الرؤية: 10 كم
سماء صافية
من 26 الساعة 0500 UTC
ريح 20 عقدة من الشمال/الشمال الغربي تتزايد حتى 30 عقدة
الرؤية: 10 كم
غيوم مفككة على ارتفاع 5000 قدم

TAF: KBFF 251120Z 2512/2612 VRB05KT P6SM SKC FM251800 25008KT P6SM SKC FM260500 33020G30KT P6SM BKN050

أرصاد الطقس والتوقعات من أكثر من 4000 مطار (تقارير الطقس للمطار METAR والتنبؤ بالطقس بالمطارTAF).

المحطات المتاحة هي النقط الصفراء والحمراء على الخريطة.

حرك المؤشر فوق النقطة لمعرفة اسم المحطة.

ثم انقر لمعرفة أرصاد وتوقعات الطقس.

لتغيير الخارطة: اضغط على الأزرار الخضراء مع رمز الصليب الأسود للتكبير. على الزر الأخضر مع شرطة للتصغير، أو على الأسهم الخضراء للخرائط المجاورة.


METAR-TAF: